sensor_id;sensor_type;location;lat;lon;timestamp;temperature;humidity
41965;DHT22;50120;53.250;8.702;2022-09-09T00:04:27;12.90;99.90
41965;DHT22;50120;53.250;8.702;2022-09-09T00:09:47;12.90;99.90
41965;DHT22;50120;53.250;8.702;2022-09-09T00:12:37;12.80;99.90
41965;DHT22;50120;53.250;8.702;2022-09-09T00:15:12;12.80;99.90
41965;DHT22;50120;53.250;8.702;2022-09-09T00:17:48;13.00;99.90
41965;DHT22;50120;53.250;8.702;2022-09-09T00:20:25;13.00;99.90
41965;DHT22;50120;53.250;8.702;2022-09-09T00:25:37;13.10;99.90
41965;DHT22;50120;53.250;8.702;2022-09-09T00:28:20;13.10;99.90
41965;DHT22;50120;53.250;8.702;2022-09-09T00:30:48;13.10;99.90
41965;DHT22;50120;53.250;8.702;2022-09-09T00:33:19;13.10;99.90
41965;DHT22;50120;53.250;8.702;2022-09-09T00:35:49;13.10;99.90
41965;DHT22;50120;53.250;8.702;2022-09-09T00:38:28;13.00;99.90
41965;DHT22;50120;53.250;8.702;2022-09-09T00:57:25;12.80;99.90
41965;DHT22;50120;53.250;8.702;2022-09-09T01:00:02;12.80;99.90
41965;DHT22;50120;53.250;8.702;2022-09-09T01:02:43;12.80;99.90
41965;DHT22;50120;53.250;8.702;2022-09-09T01:05:22;12.70;99.90
41965;DHT22;50120;53.250;8.702;2022-09-09T01:07:51;12.70;99.90
41965;DHT22;50120;53.250;8.702;2022-09-09T01:13:14;12.70;99.90
41965;DHT22;50120;53.250;8.702;2022-09-09T01:15:42;12.70;99.90
41965;DHT22;50120;53.250;8.702;2022-09-09T01:18:15;12.70;99.90
41965;DHT22;50120;53.250;8.702;2022-09-09T01:20:55;12.60;99.90
41965;DHT22;50120;53.250;8.702;2022-09-09T01:26:44;12.60;99.90
41965;DHT22;50120;53.250;8.702;2022-09-09T01:29:16;12.50;99.90
41965;DHT22;50120;53.250;8.702;2022-09-09T01:32:37;12.50;99.90
41965;DHT22;50120;53.250;8.702;2022-09-09T01:34:50;12.50;99.90
41965;DHT22;50120;53.250;8.702;2022-09-09T01:37:17;12.50;99.90
41965;DHT22;50120;53.250;8.702;2022-09-09T01:39:43;12.40;99.90
41965;DHT22;50120;53.250;8.702;2022-09-09T01:42:15;12.40;99.90
41965;DHT22;50120;53.250;8.702;2022-09-09T01:44:41;12.40;99.90
41965;DHT22;50120;53.250;8.702;2022-09-09T01:47:07;12.40;99.90
41965;DHT22;50120;53.250;8.702;2022-09-09T01:49:36;12.40;99.90
41965;DHT22;50120;53.250;8.702;2022-09-09T01:52:02;12.40;99.90
41965;DHT22;50120;53.250;8.702;2022-09-09T01:54:30;12.40;99.90
41965;DHT22;50120;53.250;8.702;2022-09-09T01:57:17;12.40;99.90
41965;DHT22;50120;53.250;8.702;2022-09-09T02:00:07;12.30;99.90
41965;DHT22;50120;53.250;8.702;2022-09-09T02:08:10;12.30;99.90
41965;DHT22;50120;53.250;8.702;2022-09-09T02:11:28;12.10;99.90
41965;DHT22;50120;53.250;8.702;2022-09-09T02:13:37;12.20;99.90
41965;DHT22;50120;53.250;8.702;2022-09-09T02:19:01;12.20;99.90
41965;DHT22;50120;53.250;8.702;2022-09-09T02:21:34;12.30;99.90
41965;DHT22;50120;53.250;8.702;2022-09-09T02:24:04;12.20;99.90
41965;DHT22;50120;53.250;8.702;2022-09-09T02:26:32;12.20;99.90
41965;DHT22;50120;53.250;8.702;2022-09-09T02:29:02;12.10;99.90
41965;DHT22;50120;53.250;8.702;2022-09-09T02:31:28;12.10;99.90
41965;DHT22;50120;53.250;8.702;2022-09-09T02:33:58;12.10;99.90
41965;DHT22;50120;53.250;8.702;2022-09-09T02:36:29;12.10;99.90
41965;DHT22;50120;53.250;8.702;2022-09-09T02:38:59;12.10;99.90
41965;DHT22;50120;53.250;8.702;2022-09-09T02:41:32;12.10;99.90
41965;DHT22;50120;53.250;8.702;2022-09-09T02:43:58;12.10;99.90
41965;DHT22;50120;53.250;8.702;2022-09-09T02:52:01;12.00;99.90
41965;DHT22;50120;53.250;8.702;2022-09-09T02:54:32;12.00;99.90
41965;DHT22;50120;53.250;8.702;2022-09-09T02:59:33;12.00;99.90
41965;DHT22;50120;53.250;8.702;2022-09-09T03:01:59;12.00;99.90
41965;DHT22;50120;53.250;8.702;2022-09-09T03:04:25;12.00;99.90
41965;DHT22;50120;53.250;8.702;2022-09-09T03:06:50;11.90;99.90
41965;DHT22;50120;53.250;8.702;2022-09-09T03:09:16;11.90;99.90
41965;DHT22;50120;53.250;8.702;2022-09-09T03:11:42;11.90;99.90
41965;DHT22;50120;53.250;8.702;2022-09-09T03:14:08;11.90;99.90
41965;DHT22;50120;53.250;8.702;2022-09-09T03:16:36;11.90;99.90
41965;DHT22;50120;53.250;8.702;2022-09-09T03:19:03;11.90;99.90
41965;DHT22;50120;53.250;8.702;2022-09-09T03:21:29;11.90;99.90
41965;DHT22;50120;53.250;8.702;2022-09-09T03:23:54;11.90;99.90
41965;DHT22;50120;53.250;8.702;2022-09-09T03:26:21;11.90;99.90
41965;DHT22;50120;53.250;8.702;2022-09-09T03:28:48;11.80;99.90
41965;DHT22;50120;53.250;8.702;2022-09-09T03:31:15;11.80;99.90
41965;DHT22;50120;53.250;8.702;2022-09-09T03:33:41;11.80;99.90
41965;DHT22;50120;53.250;8.702;2022-09-09T03:36:08;11.80;99.90
41965;DHT22;50120;53.250;8.702;2022-09-09T03:38:34;11.80;99.90
41965;DHT22;50120;53.250;8.702;2022-09-09T03:41:00;11.80;99.90
41965;DHT22;50120;53.250;8.702;2022-09-09T03:43:30;11.80;99.90
41965;DHT22;50120;53.250;8.702;2022-09-09T03:45:56;11.80;99.90
41965;DHT22;50120;53.250;8.702;2022-09-09T03:48:22;11.80;99.90
41965;DHT22;50120;53.250;8.702;2022-09-09T03:50:50;11.80;99.90
41965;DHT22;50120;53.250;8.702;2022-09-09T03:53:18;11.80;99.90
41965;DHT22;50120;53.250;8.702;2022-09-09T03:55:49;11.80;99.90
41965;DHT22;50120;53.250;8.702;2022-09-09T03:58:18;11.90;99.90
41965;DHT22;50120;53.250;8.702;2022-09-09T04:00:57;11.80;99.90
41965;DHT22;50120;53.250;8.702;2022-09-09T04:03:24;11.90;99.90
41965;DHT22;50120;53.250;8.702;2022-09-09T04:05:52;11.80;99.90
41965;DHT22;50120;53.250;8.702;2022-09-09T04:08:21;11.90;99.90
41965;DHT22;50120;53.250;8.702;2022-09-09T04:10:49;11.90;99.90
41965;DHT22;50120;53.250;8.702;2022-09-09T04:13:16;11.90;99.90
41965;DHT22;50120;53.250;8.702;2022-09-09T04:15:50;12.00;99.90
41965;DHT22;50120;53.250;8.702;2022-09-09T04:18:20;12.00;99.90
41965;DHT22;50120;53.250;8.702;2022-09-09T04:20:47;12.10;99.90
41965;DHT22;50120;53.250;8.702;2022-09-09T04:23:13;12.00;99.90
41965;DHT22;50120;53.250;8.702;2022-09-09T04:25:50;12.10;99.90
41965;DHT22;50120;53.250;8.702;2022-09-09T04:28:18;12.00;99.90
41965;DHT22;50120;53.250;8.702;2022-09-09T04:30:44;12.20;99.90
41965;DHT22;50120;53.250;8.702;2022-09-09T04:33:11;12.20;99.90
41965;DHT22;50120;53.250;8.702;2022-09-09T04:35:38;12.20;99.90
41965;DHT22;50120;53.250;8.702;2022-09-09T04:38:24;12.10;99.90
41965;DHT22;50120;53.250;8.702;2022-09-09T04:40:54;12.30;99.90
41965;DHT22;50120;53.250;8.702;2022-09-09T04:43:21;12.40;99.90
41965;DHT22;50120;53.250;8.702;2022-09-09T04:45:57;12.40;99.90
41965;DHT22;50120;53.250;8.702;2022-09-09T04:48:24;12.40;99.90
41965;DHT22;50120;53.250;8.702;2022-09-09T04:51:02;12.50;99.90
41965;DHT22;50120;53.250;8.702;2022-09-09T04:53:57;12.50;99.90
41965;DHT22;50120;53.250;8.702;2022-09-09T10:24:36;19.30;99.90
41965;DHT22;50120;53.250;8.702;2022-09-09T10:30:17;19.50;99.90
41965;DHT22;50120;53.250;8.702;2022-09-09T10:32:50;19.60;99.90
41965;DHT22;50120;53.250;8.702;2022-09-09T10:47:00;19.30;99.90
41965;DHT22;50120;53.250;8.702;2022-09-09T10:52:47;19.40;99.90
41965;DHT22;50120;53.250;8.702;2022-09-09T10:55:25;19.40;99.90
41965;DHT22;50120;53.250;8.702;2022-09-09T10:57:55;19.50;99.90
41965;DHT22;50120;53.250;8.702;2022-09-09T11:00:36;19.70;99.90
41965;DHT22;50120;53.250;8.702;2022-09-09T11:03:04;19.90;99.90
41965;DHT22;50120;53.250;8.702;2022-09-09T11:05:45;20.20;99.90
41965;DHT22;50120;53.250;8.702;2022-09-09T11:08:20;20.40;99.90
41965;DHT22;50120;53.250;8.702;2022-09-09T11:11:13;20.50;99.90
41965;DHT22;50120;53.250;8.702;2022-09-09T11:16:33;20.30;99.90
41965;DHT22;50120;53.250;8.702;2022-09-09T11:19:41;20.40;99.90
41965;DHT22;50120;53.250;8.702;2022-09-09T11:22:21;20.60;99.90
41965;DHT22;50120;53.250;8.702;2022-09-09T11:24:56;20.50;99.90
41965;DHT22;50120;53.250;8.702;2022-09-09T11:27:58;20.40;99.90
41965;DHT22;50120;53.250;8.702;2022-09-09T11:30:33;20.30;99.90
41965;DHT22;50120;53.250;8.702;2022-09-09T11:41:41;19.90;99.90
41965;DHT22;50120;53.250;8.702;2022-09-09T11:44:12;20.00;99.90
41965;DHT22;50120;53.250;8.702;2022-09-09T11:46:41;20.00;99.90
41965;DHT22;50120;53.250;8.702;2022-09-09T11:49:29;19.80;99.90
41965;DHT22;50120;53.250;8.702;2022-09-09T11:51:56;19.60;99.90
41965;DHT22;50120;53.250;8.702;2022-09-09T11:54:33;19.50;99.90
41965;DHT22;50120;53.250;8.702;2022-09-09T11:57:26;19.40;99.90
41965;DHT22;50120;53.250;8.702;2022-09-09T11:59:54;19.40;99.90
41965;DHT22;50120;53.250;8.702;2022-09-09T12:02:28;19.40;99.90
41965;DHT22;50120;53.250;8.702;2022-09-09T12:05:00;19.40;99.90
41965;DHT22;50120;53.250;8.702;2022-09-09T12:07:59;19.50;99.90
41965;DHT22;50120;53.250;8.702;2022-09-09T12:10:35;19.60;99.90
41965;DHT22;50120;53.250;8.702;2022-09-09T12:13:16;19.70;99.90
41965;DHT22;50120;53.250;8.702;2022-09-09T12:15:51;19.80;99.90
41965;DHT22;50120;53.250;8.702;2022-09-09T12:18:39;19.80;99.90
41965;DHT22;50120;53.250;8.702;2022-09-09T12:21:33;19.80;99.90
41965;DHT22;50120;53.250;8.702;2022-09-09T12:29:51;19.50;99.90
41965;DHT22;50120;53.250;8.702;2022-09-09T12:32:24;19.30;99.90
41965;DHT22;50120;53.250;8.702;2022-09-09T12:34:54;19.30;99.90
41965;DHT22;50120;53.250;8.702;2022-09-09T12:38:15;19.20;99.90
41965;DHT22;50120;53.250;8.702;2022-09-09T12:40:34;19.20;99.90
41965;DHT22;50120;53.250;8.702;2022-09-09T12:43:01;19.20;99.90
41965;DHT22;50120;53.250;8.702;2022-09-09T12:45:30;19.10;99.90
41965;DHT22;50120;53.250;8.702;2022-09-09T12:48:08;19.10;99.90
41965;DHT22;50120;53.250;8.702;2022-09-09T12:50:51;19.10;99.90
41965;DHT22;50120;53.250;8.702;2022-09-09T12:53:23;19.00;99.90
41965;DHT22;50120;53.250;8.702;2022-09-09T12:58:33;18.90;99.90
41965;DHT22;50120;53.250;8.702;2022-09-09T13:01:01;18.90;99.90
41965;DHT22;50120;53.250;8.702;2022-09-09T13:03:31;18.80;99.90
41965;DHT22;50120;53.250;8.702;2022-09-09T13:06:10;18.70;99.90
41965;DHT22;50120;53.250;8.702;2022-09-09T13:08:37;18.60;99.90
41965;DHT22;50120;53.250;8.702;2022-09-09T13:11:09;18.40;99.90
41965;DHT22;50120;53.250;8.702;2022-09-09T13:13:37;18.30;99.90
41965;DHT22;50120;53.250;8.702;2022-09-09T13:16:05;18.20;99.90
41965;DHT22;50120;53.250;8.702;2022-09-09T13:18:39;18.10;99.90
41965;DHT22;50120;53.250;8.702;2022-09-09T13:21:06;18.10;99.90
41965;DHT22;50120;53.250;8.702;2022-09-09T13:23:34;18.00;99.90
41965;DHT22;50120;53.250;8.702;2022-09-09T13:26:21;17.90;99.90
41965;DHT22;50120;53.250;8.702;2022-09-09T13:28:48;17.90;99.90
41965;DHT22;50120;53.250;8.702;2022-09-09T13:31:23;17.90;99.90
41965;DHT22;50120;53.250;8.702;2022-09-09T13:33:49;17.90;99.90
41965;DHT22;50120;53.250;8.702;2022-09-09T13:36:15;18.00;99.90
41965;DHT22;50120;53.250;8.702;2022-09-09T13:39:02;18.00;99.90
41965;DHT22;50120;53.250;8.702;2022-09-09T13:41:30;17.90;99.90
41965;DHT22;50120;53.250;8.702;2022-09-09T13:43:57;17.90;99.90
41965;DHT22;50120;53.250;8.702;2022-09-09T13:46:41;17.90;99.90
41965;DHT22;50120;53.250;8.702;2022-09-09T13:54:09;17.80;99.90
41965;DHT22;50120;53.250;8.702;2022-09-09T13:56:36;17.80;99.90
41965;DHT22;50120;53.250;8.702;2022-09-09T13:59:04;17.70;99.90
41965;DHT22;50120;53.250;8.702;2022-09-09T14:01:30;17.70;99.90
41965;DHT22;50120;53.250;8.702;2022-09-09T14:03:57;17.70;99.90
41965;DHT22;50120;53.250;8.702;2022-09-09T14:06:23;17.60;99.90
41965;DHT22;50120;53.250;8.702;2022-09-09T14:08:50;17.50;99.90
41965;DHT22;50120;53.250;8.702;2022-09-09T14:11:16;17.50;99.90
41965;DHT22;50120;53.250;8.702;2022-09-09T14:13:44;17.40;99.90
41965;DHT22;50120;53.250;8.702;2022-09-09T14:16:10;17.40;99.90
41965;DHT22;50120;53.250;8.702;2022-09-09T14:18:36;17.40;99.90
41965;DHT22;50120;53.250;8.702;2022-09-09T14:21:04;17.30;99.90
41965;DHT22;50120;53.250;8.702;2022-09-09T14:23:30;17.30;99.90
41965;DHT22;50120;53.250;8.702;2022-09-09T14:25:56;17.30;99.90
41965;DHT22;50120;53.250;8.702;2022-09-09T14:28:21;17.30;99.90
41965;DHT22;50120;53.250;8.702;2022-09-09T14:30:47;17.20;99.90
41965;DHT22;50120;53.250;8.702;2022-09-09T14:33:15;17.20;99.90
41965;DHT22;50120;53.250;8.702;2022-09-09T14:35:41;17.10;99.90
41965;DHT22;50120;53.250;8.702;2022-09-09T14:38:08;17.10;99.90
41965;DHT22;50120;53.250;8.702;2022-09-09T14:40:35;17.10;99.90
41965;DHT22;50120;53.250;8.702;2022-09-09T14:43:02;17.10;99.90
41965;DHT22;50120;53.250;8.702;2022-09-09T14:45:28;17.10;99.90
41965;DHT22;50120;53.250;8.702;2022-09-09T14:47:54;17.10;99.90
41965;DHT22;50120;53.250;8.702;2022-09-09T14:50:21;17.10;99.90
41965;DHT22;50120;53.250;8.702;2022-09-09T14:52:47;17.00;99.90
41965;DHT22;50120;53.250;8.702;2022-09-09T14:55:14;16.90;99.90
41965;DHT22;50120;53.250;8.702;2022-09-09T14:57:40;16.80;99.90
41965;DHT22;50120;53.250;8.702;2022-09-09T15:00:08;16.80;99.90
41965;DHT22;50120;53.250;8.702;2022-09-09T15:02:34;16.70;99.90
41965;DHT22;50120;53.250;8.702;2022-09-09T15:04:59;16.60;99.90
41965;DHT22;50120;53.250;8.702;2022-09-09T15:07:26;16.60;99.90
41965;DHT22;50120;53.250;8.702;2022-09-09T15:09:52;16.50;99.90
41965;DHT22;50120;53.250;8.702;2022-09-09T15:12:18;16.50;99.90
41965;DHT22;50120;53.250;8.702;2022-09-09T15:14:45;16.40;99.90
41965;DHT22;50120;53.250;8.702;2022-09-09T15:17:11;16.50;99.90
41965;DHT22;50120;53.250;8.702;2022-09-09T15:19:37;16.40;99.90
41965;DHT22;50120;53.250;8.702;2022-09-09T15:22:04;16.40;99.90
41965;DHT22;50120;53.250;8.702;2022-09-09T15:24:31;16.40;99.90
41965;DHT22;50120;53.250;8.702;2022-09-09T15:26:57;16.40;99.90
41965;DHT22;50120;53.250;8.702;2022-09-09T15:29:24;16.40;99.90
41965;DHT22;50120;53.250;8.702;2022-09-09T15:31:49;16.40;99.90
41965;DHT22;50120;53.250;8.702;2022-09-09T15:34:15;16.40;99.90
41965;DHT22;50120;53.250;8.702;2022-09-09T15:36:43;16.30;99.90
41965;DHT22;50120;53.250;8.702;2022-09-09T15:39:13;16.30;99.90
41965;DHT22;50120;53.250;8.702;2022-09-09T15:41:41;16.30;99.90
41965;DHT22;50120;53.250;8.702;2022-09-09T15:44:09;16.30;99.90
41965;DHT22;50120;53.250;8.702;2022-09-09T15:46:40;16.20;99.90
41965;DHT22;50120;53.250;8.702;2022-09-09T15:51:36;16.20;99.90
41965;DHT22;50120;53.250;8.702;2022-09-09T15:54:03;16.20;99.90
41965;DHT22;50120;53.250;8.702;2022-09-09T15:56:30;16.10;99.90
41965;DHT22;50120;53.250;8.702;2022-09-09T15:58:57;16.10;99.90
41965;DHT22;50120;53.250;8.702;2022-09-09T16:01:24;16.10;99.90
41965;DHT22;50120;53.250;8.702;2022-09-09T16:03:50;16.00;99.90
41965;DHT22;50120;53.250;8.702;2022-09-09T16:06:18;16.00;99.90
41965;DHT22;50120;53.250;8.702;2022-09-09T16:08:45;16.00;99.90
41965;DHT22;50120;53.250;8.702;2022-09-09T16:11:14;15.90;99.90
41965;DHT22;50120;53.250;8.702;2022-09-09T16:13:41;15.90;99.90
41965;DHT22;50120;53.250;8.702;2022-09-09T16:16:09;15.90;99.90
41965;DHT22;50120;53.250;8.702;2022-09-09T16:18:39;16.00;99.90
41965;DHT22;50120;53.250;8.702;2022-09-09T16:21:06;15.90;99.90
41965;DHT22;50120;53.250;8.702;2022-09-09T16:23:34;16.00;99.90
41965;DHT22;50120;53.250;8.702;2022-09-09T16:26:01;16.00;99.90
41965;DHT22;50120;53.250;8.702;2022-09-09T16:28:26;16.00;99.90
41965;DHT22;50120;53.250;8.702;2022-09-09T16:30:52;15.90;99.90
41965;DHT22;50120;53.250;8.702;2022-09-09T16:33:18;15.90;99.90
41965;DHT22;50120;53.250;8.702;2022-09-09T16:35:44;15.80;99.90
41965;DHT22;50120;53.250;8.702;2022-09-09T16:38:11;15.80;99.90
41965;DHT22;50120;53.250;8.702;2022-09-09T16:40:40;15.80;99.90
41965;DHT22;50120;53.250;8.702;2022-09-09T16:43:07;15.80;99.90
41965;DHT22;50120;53.250;8.702;2022-09-09T16:45:42;15.80;99.90
41965;DHT22;50120;53.250;8.702;2022-09-09T16:48:08;15.80;99.90
41965;DHT22;50120;53.250;8.702;2022-09-09T16:50:33;15.80;99.90
41965;DHT22;50120;53.250;8.702;2022-09-09T16:52:59;15.80;99.90
41965;DHT22;50120;53.250;8.702;2022-09-09T16:55:28;15.80;99.90
41965;DHT22;50120;53.250;8.702;2022-09-09T16:57:54;15.80;99.90
41965;DHT22;50120;53.250;8.702;2022-09-09T17:00:20;15.70;99.90
41965;DHT22;50120;53.250;8.702;2022-09-09T17:02:45;15.70;99.90
41965;DHT22;50120;53.250;8.702;2022-09-09T17:05:11;15.70;99.90
41965;DHT22;50120;53.250;8.702;2022-09-09T17:07:38;15.70;99.90
41965;DHT22;50120;53.250;8.702;2022-09-09T17:10:05;15.80;99.90
41965;DHT22;50120;53.250;8.702;2022-09-09T17:12:32;15.70;99.90
41965;DHT22;50120;53.250;8.702;2022-09-09T17:14:57;15.70;99.90
41965;DHT22;50120;53.250;8.702;2022-09-09T17:17:25;15.70;99.90
41965;DHT22;50120;53.250;8.702;2022-09-09T17:19:52;15.70;99.90
41965;DHT22;50120;53.250;8.702;2022-09-09T17:22:18;15.70;99.90
41965;DHT22;50120;53.250;8.702;2022-09-09T17:24:45;15.70;99.90
41965;DHT22;50120;53.250;8.702;2022-09-09T17:27:11;15.70;99.90
41965;DHT22;50120;53.250;8.702;2022-09-09T17:29:38;15.60;99.90
41965;DHT22;50120;53.250;8.702;2022-09-09T17:32:05;15.60;99.90
41965;DHT22;50120;53.250;8.702;2022-09-09T17:34:31;15.60;99.90
41965;DHT22;50120;53.250;8.702;2022-09-09T17:36:57;15.60;99.90
41965;DHT22;50120;53.250;8.702;2022-09-09T17:39:22;15.50;99.90
41965;DHT22;50120;53.250;8.702;2022-09-09T17:41:48;15.50;99.90
41965;DHT22;50120;53.250;8.702;2022-09-09T17:44:14;15.40;99.90
41965;DHT22;50120;53.250;8.702;2022-09-09T17:46:42;15.40;99.90
41965;DHT22;50120;53.250;8.702;2022-09-09T17:49:10;15.30;99.90
41965;DHT22;50120;53.250;8.702;2022-09-09T17:51:37;15.30;99.90
41965;DHT22;50120;53.250;8.702;2022-09-09T17:54:13;15.20;99.90
41965;DHT22;50120;53.250;8.702;2022-09-09T17:56:40;15.20;99.90
41965;DHT22;50120;53.250;8.702;2022-09-09T17:59:08;15.20;99.90
41965;DHT22;50120;53.250;8.702;2022-09-09T18:01:37;15.20;99.90
41965;DHT22;50120;53.250;8.702;2022-09-09T18:04:05;15.20;99.90
41965;DHT22;50120;53.250;8.702;2022-09-09T18:06:40;15.10;99.90
41965;DHT22;50120;53.250;8.702;2022-09-09T18:09:12;15.10;99.90
41965;DHT22;50120;53.250;8.702;2022-09-09T18:11:44;15.00;99.90
41965;DHT22;50120;53.250;8.702;2022-09-09T18:14:14;15.00;99.90
41965;DHT22;50120;53.250;8.702;2022-09-09T18:16:42;14.90;99.90
41965;DHT22;50120;53.250;8.702;2022-09-09T18:19:10;14.90;99.90
41965;DHT22;50120;53.250;8.702;2022-09-09T18:21:39;14.90;99.90
41965;DHT22;50120;53.250;8.702;2022-09-09T18:24:07;14.90;99.90
41965;DHT22;50120;53.250;8.702;2022-09-09T18:26:34;14.80;99.90
41965;DHT22;50120;53.250;8.702;2022-09-09T18:29:03;14.80;99.90
41965;DHT22;50120;53.250;8.702;2022-09-09T18:31:30;14.80;99.90
41965;DHT22;50120;53.250;8.702;2022-09-09T18:33:58;14.80;99.90
41965;DHT22;50120;53.250;8.702;2022-09-09T18:36:26;14.80;99.90
41965;DHT22;50120;53.250;8.702;2022-09-09T18:38:52;14.80;99.90
41965;DHT22;50120;53.250;8.702;2022-09-09T18:41:23;14.80;99.90
41965;DHT22;50120;53.250;8.702;2022-09-09T18:43:51;14.80;99.90
41965;DHT22;50120;53.250;8.702;2022-09-09T18:46:19;14.80;99.90
41965;DHT22;50120;53.250;8.702;2022-09-09T18:48:46;14.70;99.90
41965;DHT22;50120;53.250;8.702;2022-09-09T18:51:16;14.70;99.90
41965;DHT22;50120;53.250;8.702;2022-09-09T18:53:42;14.70;99.90
41965;DHT22;50120;53.250;8.702;2022-09-09T18:56:12;14.70;99.90
41965;DHT22;50120;53.250;8.702;2022-09-09T18:58:38;14.70;99.90
41965;DHT22;50120;53.250;8.702;2022-09-09T19:01:08;14.70;99.90
41965;DHT22;50120;53.250;8.702;2022-09-09T19:03:35;14.70;99.90
41965;DHT22;50120;53.250;8.702;2022-09-09T19:06:11;14.60;99.90
41965;DHT22;50120;53.250;8.702;2022-09-09T19:08:39;14.60;99.90
41965;DHT22;50120;53.250;8.702;2022-09-09T19:11:06;14.60;99.90
41965;DHT22;50120;53.250;8.702;2022-09-09T19:13:33;14.60;99.90
41965;DHT22;50120;53.250;8.702;2022-09-09T19:16:08;14.60;99.90
41965;DHT22;50120;53.250;8.702;2022-09-09T19:18:34;14.60;99.90
41965;DHT22;50120;53.250;8.702;2022-09-09T19:21:19;14.50;99.90
41965;DHT22;50120;53.250;8.702;2022-09-09T19:23:52;14.50;99.90
41965;DHT22;50120;53.250;8.702;2022-09-09T19:26:19;14.40;99.90
41965;DHT22;50120;53.250;8.702;2022-09-09T19:28:45;14.40;99.90
41965;DHT22;50120;53.250;8.702;2022-09-09T19:31:12;14.40;99.90
41965;DHT22;50120;53.250;8.702;2022-09-09T19:33:40;14.40;99.90
41965;DHT22;50120;53.250;8.702;2022-09-09T19:36:13;14.30;99.90
41965;DHT22;50120;53.250;8.702;2022-09-09T19:38:40;14.30;99.90
41965;DHT22;50120;53.250;8.702;2022-09-09T19:41:09;14.30;99.90
41965;DHT22;50120;53.250;8.702;2022-09-09T19:43:35;14.30;99.90
41965;DHT22;50120;53.250;8.702;2022-09-09T19:46:04;14.30;99.90
41965;DHT22;50120;53.250;8.702;2022-09-09T19:48:32;14.20;99.90
41965;DHT22;50120;53.250;8.702;2022-09-09T19:51:02;14.20;99.90
41965;DHT22;50120;53.250;8.702;2022-09-09T19:53:30;14.20;99.90
41965;DHT22;50120;53.250;8.702;2022-09-09T19:55:57;14.20;99.90
41965;DHT22;50120;53.250;8.702;2022-09-09T19:58:22;14.10;99.90
41965;DHT22;50120;53.250;8.702;2022-09-09T20:00:48;14.10;99.90
41965;DHT22;50120;53.250;8.702;2022-09-09T20:03:14;14.10;99.90
41965;DHT22;50120;53.250;8.702;2022-09-09T20:05:40;14.10;99.90
41965;DHT22;50120;53.250;8.702;2022-09-09T20:08:06;14.00;99.90
41965;DHT22;50120;53.250;8.702;2022-09-09T20:10:32;14.00;99.90
41965;DHT22;50120;53.250;8.702;2022-09-09T20:12:58;14.00;99.90
41965;DHT22;50120;53.250;8.702;2022-09-09T20:15:25;13.90;99.90
41965;DHT22;50120;53.250;8.702;2022-09-09T20:17:51;13.90;99.90
41965;DHT22;50120;53.250;8.702;2022-09-09T20:20:17;13.90;99.90
41965;DHT22;50120;53.250;8.702;2022-09-09T20:22:44;13.90;99.90
41965;DHT22;50120;53.250;8.702;2022-09-09T20:25:10;13.90;99.90
41965;DHT22;50120;53.250;8.702;2022-09-09T20:27:35;13.80;99.90
41965;DHT22;50120;53.250;8.702;2022-09-09T20:30:01;13.70;99.90
41965;DHT22;50120;53.250;8.702;2022-09-09T20:32:27;13.70;99.90
41965;DHT22;50120;53.250;8.702;2022-09-09T20:34:53;13.60;99.90
41965;DHT22;50120;53.250;8.702;2022-09-09T20:37:19;13.60;99.90
41965;DHT22;50120;53.250;8.702;2022-09-09T20:39:45;13.60;99.90
41965;DHT22;50120;53.250;8.702;2022-09-09T20:42:11;13.60;99.90
41965;DHT22;50120;53.250;8.702;2022-09-09T20:44:37;13.60;99.90
41965;DHT22;50120;53.250;8.702;2022-09-09T20:47:03;13.60;99.90
41965;DHT22;50120;53.250;8.702;2022-09-09T20:49:32;13.50;99.90
41965;DHT22;50120;53.250;8.702;2022-09-09T20:52:00;13.50;99.90
41965;DHT22;50120;53.250;8.702;2022-09-09T20:54:27;13.50;99.90
41965;DHT22;50120;53.250;8.702;2022-09-09T20:56:57;13.50;99.90
41965;DHT22;50120;53.250;8.702;2022-09-09T20:59:28;13.50;99.90
41965;DHT22;50120;53.250;8.702;2022-09-09T21:01:56;13.50;99.90
41965;DHT22;50120;53.250;8.702;2022-09-09T21:04:22;13.50;99.90
41965;DHT22;50120;53.250;8.702;2022-09-09T21:06:49;13.50;99.90
41965;DHT22;50120;53.250;8.702;2022-09-09T21:09:15;13.50;99.90
41965;DHT22;50120;53.250;8.702;2022-09-09T21:11:42;13.50;99.90
41965;DHT22;50120;53.250;8.702;2022-09-09T21:14:08;13.50;99.90
41965;DHT22;50120;53.250;8.702;2022-09-09T21:16:34;13.50;99.90
41965;DHT22;50120;53.250;8.702;2022-09-09T21:19:00;13.50;99.90
41965;DHT22;50120;53.250;8.702;2022-09-09T21:21:26;13.60;99.90
41965;DHT22;50120;53.250;8.702;2022-09-09T21:23:56;13.60;99.90
41965;DHT22;50120;53.250;8.702;2022-09-09T21:26:25;13.60;99.90
41965;DHT22;50120;53.250;8.702;2022-09-09T21:28:51;13.60;99.90
41965;DHT22;50120;53.250;8.702;2022-09-09T21:31:18;13.60;99.90
41965;DHT22;50120;53.250;8.702;2022-09-09T21:33:45;13.60;99.90
41965;DHT22;50120;53.250;8.702;2022-09-09T21:36:12;13.70;99.90
41965;DHT22;50120;53.250;8.702;2022-09-09T21:38:38;13.60;99.90
41965;DHT22;50120;53.250;8.702;2022-09-09T21:41:09;13.60;99.90
41965;DHT22;50120;53.250;8.702;2022-09-09T21:43:37;13.60;99.90
41965;DHT22;50120;53.250;8.702;2022-09-09T21:46:08;13.60;99.90
41965;DHT22;50120;53.250;8.702;2022-09-09T21:48:34;13.60;99.90
41965;DHT22;50120;53.250;8.702;2022-09-09T21:51:05;13.60;99.90
41965;DHT22;50120;53.250;8.702;2022-09-09T21:53:32;13.60;99.90
41965;DHT22;50120;53.250;8.702;2022-09-09T21:56:03;13.60;99.90
41965;DHT22;50120;53.250;8.702;2022-09-09T21:58:32;13.60;99.90
41965;DHT22;50120;53.250;8.702;2022-09-09T22:00:57;13.60;99.90
41965;DHT22;50120;53.250;8.702;2022-09-09T22:03:23;13.60;99.90
41965;DHT22;50120;53.250;8.702;2022-09-09T22:05:49;13.50;99.90
41965;DHT22;50120;53.250;8.702;2022-09-09T22:08:15;13.60;99.90
41965;DHT22;50120;53.250;8.702;2022-09-09T22:10:44;13.60;99.90
41965;DHT22;50120;53.250;8.702;2022-09-09T22:13:11;13.50;99.90
41965;DHT22;50120;53.250;8.702;2022-09-09T22:15:45;13.50;99.90
41965;DHT22;50120;53.250;8.702;2022-09-09T22:18:11;13.50;99.90
41965;DHT22;50120;53.250;8.702;2022-09-09T22:20:42;13.50;99.90
41965;DHT22;50120;53.250;8.702;2022-09-09T22:23:09;13.50;99.90
41965;DHT22;50120;53.250;8.702;2022-09-09T22:25:36;13.40;99.90
41965;DHT22;50120;53.250;8.702;2022-09-09T22:28:04;13.40;99.90
41965;DHT22;50120;53.250;8.702;2022-09-09T22:30:30;13.40;99.90
41965;DHT22;50120;53.250;8.702;2022-09-09T22:32:56;13.50;99.90
41965;DHT22;50120;53.250;8.702;2022-09-09T22:35:22;13.50;99.90
41965;DHT22;50120;53.250;8.702;2022-09-09T22:37:48;13.50;99.90
41965;DHT22;50120;53.250;8.702;2022-09-09T22:40:14;13.50;99.90
41965;DHT22;50120;53.250;8.702;2022-09-09T22:42:40;13.50;99.90
41965;DHT22;50120;53.250;8.702;2022-09-09T22:45:08;13.50;99.90
41965;DHT22;50120;53.250;8.702;2022-09-09T22:47:35;13.50;99.90